Honea Path, South Carolina
Current Conditions -  °F | °C
As of 8:56 AM on Monday 26 Jan 2015 (Local Time) from KAND Reporting Station
Broken Clouds Broken Clouds  
Wind Chill: 41°   Ceiling: 9000
Heat Index: 46°   Visibility: 10mi
Dew Point: 39°   Wind: 12mph
Humidity: 76%   Direction: 270°W
Pressure: 29.68"   Gusts: 22mph
Location:  34.45°N, 82.39°W
Report Text: KAND 261356Z AUTO 27010G19KT 10SM BKN090 08/04 A2968 RMK AO2 SLP050 T00780039
Loading
Personal Weather Stations






























Interactive Weather Map New forecast layout! Learn more

10-Day Weather Forecast

Advertisements
Track Severe Weather on mobile